createdAt,value
2023-01-10T00:02:19.097Z,37.67
2023-01-10T00:04:45.526Z,53.72
2023-01-10T00:07:12.128Z,44.97
2023-01-10T00:09:38.490Z,51.55
2023-01-10T00:12:23.997Z,48.20
2023-01-10T00:14:50.726Z,48.60
2023-01-10T00:17:18.641Z,50.78
2023-01-10T00:19:45.064Z,45.13
2023-01-10T00:22:11.907Z,47.10
2023-01-10T00:24:38.999Z,42.63
2023-01-10T00:27:05.510Z,48.20
2023-01-10T00:29:32.037Z,43.75
2023-01-10T00:31:58.521Z,41.88
2023-01-10T00:34:25.111Z,47.72
2023-01-10T00:36:51.739Z,44.80
2023-01-10T00:39:20.775Z,36.78
2023-01-10T00:42:06.202Z,47.05
2023-01-10T00:44:32.665Z,39.85
2023-01-10T00:46:59.116Z,36.97
2023-01-10T00:49:25.515Z,49.55
2023-01-10T00:51:51.975Z,47.67
2023-01-10T00:54:18.514Z,42.42
2023-01-10T00:56:44.966Z,33.97
2023-01-10T00:59:11.378Z,51.38
2023-01-10T01:01:37.907Z,41.75
2023-01-10T01:04:04.541Z,42.10
2023-01-10T01:06:30.994Z,34.17
2023-01-10T01:08:57.694Z,32.45
2023-01-10T01:11:24.775Z,32.13
2023-01-10T01:13:51.808Z,33.55
2023-01-10T01:16:18.492Z,34.17
2023-01-10T01:18:45.073Z,43.05
2023-01-10T01:21:11.564Z,38.40
2023-01-10T01:23:38.201Z,31.83
2023-01-10T01:26:06.258Z,30.55
2023-01-10T01:28:32.792Z,30.10
2023-01-10T01:30:59.427Z,29.00
2023-01-10T01:33:26.161Z,41.10
2023-01-10T01:35:52.537Z,34.60
2023-01-10T01:38:19.061Z,34.30
2023-01-10T01:40:45.540Z,34.60
2023-01-10T01:43:26.876Z,31.67
2023-01-10T01:45:54.151Z,35.72
2023-01-10T01:48:27.963Z,33.47
2023-01-10T01:51:17.071Z,37.00
2023-01-10T01:53:48.268Z,38.97
2023-01-10T01:56:24.502Z,40.15
2023-01-10T01:58:57.151Z,42.72
2023-01-10T02:01:24.077Z,36.17
2023-01-10T02:03:56.007Z,30.38
2023-01-10T02:06:24.787Z,35.35
2023-01-10T02:09:03.197Z,38.28
2023-01-10T02:11:30.675Z,38.88
2023-01-10T02:13:57.891Z,35.83
2023-01-10T02:16:24.297Z,33.08
2023-01-10T02:18:50.798Z,37.58
2023-01-10T02:21:41.892Z,28.00
2023-01-10T02:24:17.043Z,28.40
2023-01-10T02:27:02.333Z,39.15
2023-01-10T02:29:44.257Z,28.48
2023-01-10T02:33:00.232Z,30.95
2023-01-10T02:35:51.675Z,36.03
2023-01-10T02:38:36.270Z,23.67
2023-01-10T02:41:17.864Z,35.33
2023-01-10T02:43:54.280Z,28.13
2023-01-10T02:46:27.640Z,24.55
2023-01-10T02:48:55.206Z,29.98
2023-01-10T02:51:29.703Z,24.88
2023-01-10T02:54:12.175Z,28.73
2023-01-10T02:57:18.490Z,32.25
2023-01-10T02:59:56.475Z,28.88
2023-01-10T03:02:44.408Z,31.63
2023-01-10T03:05:26.147Z,26.48
2023-01-10T03:08:25.345Z,28.15
2023-01-10T03:10:59.885Z,35.50
2023-01-10T03:13:38.068Z,25.27
2023-01-10T03:16:07.921Z,31.85
2023-01-10T03:19:01.863Z,30.20
2023-01-10T03:21:31.487Z,28.48
2023-01-10T03:24:10.550Z,30.52
2023-01-10T03:26:44.886Z,30.98
2023-01-10T03:29:14.170Z,26.83
2023-01-10T03:31:48.024Z,28.05
2023-01-10T03:34:14.600Z,33.92
2023-01-10T03:36:56.251Z,29.27
2023-01-10T03:39:51.921Z,32.22
2023-01-10T03:43:04.428Z,27.27
2023-01-10T03:45:36.801Z,23.92
2023-01-10T03:48:07.052Z,23.55
2023-01-10T03:53:00.363Z,26.45
2023-01-10T03:55:29.916Z,25.67
2023-01-10T03:57:56.354Z,28.58
2023-01-10T04:00:24.168Z,31.30
2023-01-10T04:02:50.834Z,33.63
2023-01-10T04:05:17.287Z,28.70
2023-01-10T04:07:43.751Z,32.38
2023-01-10T04:10:10.761Z,35.58
2023-01-10T04:12:37.211Z,27.25
2023-01-10T04:15:04.312Z,30.83
2023-01-10T04:17:30.757Z,29.08
2023-01-10T04:19:57.149Z,40.80
2023-01-10T04:22:23.573Z,37.63
2023-01-10T04:24:51.896Z,25.00
2023-01-10T04:27:18.880Z,33.10
2023-01-10T04:29:45.262Z,21.77
2023-01-10T04:32:12.164Z,31.90
2023-01-10T04:34:38.654Z,35.10
2023-01-10T04:37:05.303Z,34.75
2023-01-10T04:39:31.782Z,28.48
2023-01-10T04:41:58.230Z,30.42
2023-01-10T04:44:24.841Z,25.92
2023-01-10T04:46:51.228Z,33.33
2023-01-10T04:49:17.893Z,28.10
2023-01-10T04:51:44.287Z,35.95
2023-01-10T04:54:10.699Z,37.30
2023-01-10T04:56:37.135Z,30.08
2023-01-10T04:59:06.432Z,37.63
2023-01-10T05:01:33.911Z,36.37
2023-01-10T05:04:00.348Z,31.08
2023-01-10T05:06:26.737Z,36.33
2023-01-10T05:08:53.159Z,32.95
2023-01-10T05:11:19.600Z,28.33
2023-01-10T05:13:47.908Z,22.55
2023-01-10T05:16:14.941Z,27.10
2023-01-10T05:18:41.710Z,25.38
2023-01-10T05:21:13.442Z,31.33
2023-01-10T05:23:39.961Z,35.28
2023-01-10T05:26:11.873Z,41.92
2023-01-10T05:28:39.547Z,33.75
2023-01-10T05:31:07.511Z,32.60
2023-01-10T05:33:34.023Z,23.20
2023-01-10T05:36:05.123Z,26.95
2023-01-10T05:38:32.798Z,27.73
2023-01-10T05:40:59.826Z,26.35
2023-01-10T05:43:26.695Z,25.58
2023-01-10T05:45:53.423Z,25.98
2023-01-10T05:48:22.860Z,21.92
2023-01-10T05:50:50.873Z,30.85
2023-01-10T05:53:18.246Z,32.17
2023-01-10T05:55:51.998Z,31.73
2023-01-10T05:58:18.453Z,34.08
2023-01-10T06:00:44.829Z,29.75
2023-01-10T06:03:11.226Z,29.90
2023-01-10T06:05:40.746Z,28.40
2023-01-10T06:08:07.307Z,34.80
2023-01-10T06:10:33.715Z,32.78
2023-01-10T06:13:00.171Z,29.13
2023-01-10T06:15:26.692Z,26.67
2023-01-10T06:17:53.095Z,30.17
2023-01-10T06:20:19.576Z,31.35
2023-01-10T06:22:46.131Z,25.83
2023-01-10T06:25:13.840Z,26.73
2023-01-10T06:27:41.629Z,26.90
2023-01-10T06:30:09.582Z,40.08
2023-01-10T06:32:36.364Z,38.55
2023-01-10T06:35:03.022Z,25.00
2023-01-10T06:37:29.448Z,32.40
2023-01-10T06:39:55.998Z,51.30
2023-01-10T06:42:22.395Z,55.22
2023-01-10T06:44:48.822Z,47.47
2023-01-10T06:47:15.336Z,42.70
2023-01-10T06:49:41.761Z,30.33
2023-01-10T06:52:08.174Z,44.25
2023-01-10T06:54:34.552Z,37.03
2023-01-10T06:57:00.985Z,34.38
2023-01-10T06:59:27.587Z,43.13
2023-01-10T07:01:54.080Z,29.27
2023-01-10T07:04:20.908Z,30.60
2023-01-10T07:06:47.331Z,44.15
2023-01-10T07:09:13.812Z,40.60
2023-01-10T07:11:40.207Z,33.70
2023-01-10T07:14:06.991Z,39.45
2023-01-10T07:16:33.395Z,43.55
2023-01-10T07:18:59.843Z,35.28
2023-01-10T07:21:26.475Z,38.38
2023-01-10T07:23:52.899Z,30.55
2023-01-10T07:26:19.552Z,28.27
2023-01-10T07:28:50.955Z,37.78
2023-01-10T07:31:19.311Z,34.33
2023-01-10T07:33:45.831Z,29.42
2023-01-10T07:36:12.663Z,37.88
2023-01-10T07:38:39.271Z,32.78
2023-01-10T07:41:06.298Z,33.60
2023-01-10T07:43:33.876Z,39.30
2023-01-10T07:46:02.167Z,34.78
2023-01-10T07:48:28.855Z,29.52
2023-01-10T07:50:57.414Z,26.95
2023-01-10T07:53:24.483Z,38.47
2023-01-10T07:55:50.927Z,52.05
2023-01-10T07:58:17.333Z,36.17
2023-01-10T08:00:43.993Z,51.30
2023-01-10T08:03:11.100Z,34.30
2023-01-10T08:05:37.604Z,48.08
2023-01-10T08:08:06.114Z,36.67
2023-01-10T08:10:34.616Z,47.35
2023-01-10T08:13:13.129Z,39.70
2023-01-10T08:15:45.445Z,42.30
2023-01-10T08:18:11.878Z,33.03
2023-01-10T08:20:38.713Z,47.30
2023-01-10T08:23:05.404Z,34.72
2023-01-10T08:25:31.860Z,33.80
2023-01-10T08:27:58.279Z,34.10
2023-01-10T08:30:24.826Z,35.35
2023-01-10T08:32:52.301Z,46.40
2023-01-10T08:35:18.777Z,38.08
2023-01-10T08:37:45.188Z,43.45
2023-01-10T08:40:12.055Z,47.60
2023-01-10T08:42:38.441Z,32.25
2023-01-10T08:45:05.791Z,44.28
2023-01-10T08:47:32.336Z,40.00
2023-01-10T08:49:58.834Z,40.30
2023-01-10T08:52:25.243Z,51.08
2023-01-10T08:54:54.655Z,50.83
2023-01-10T08:57:21.205Z,43.70
2023-01-10T08:59:47.605Z,39.10
2023-01-10T09:02:14.320Z,38.45
2023-01-10T09:04:40.814Z,31.63
2023-01-10T09:07:07.317Z,36.20
2023-01-10T09:09:33.690Z,36.38
2023-01-10T09:12:00.206Z,41.50
2023-01-10T09:14:26.617Z,53.13
2023-01-10T09:16:53.026Z,62.53
2023-01-10T09:19:37.810Z,67.10
2023-01-10T09:22:04.318Z,47.40
2023-01-10T09:24:31.051Z,74.25
2023-01-10T09:26:57.459Z,49.45
2023-01-10T09:29:23.971Z,33.08
2023-01-10T09:31:50.354Z,43.80
2023-01-10T09:34:16.972Z,39.25
2023-01-10T09:36:43.359Z,38.75
2023-01-10T09:39:09.740Z,34.10
2023-01-10T09:42:09.950Z,29.95
2023-01-10T09:45:16.806Z,42.50
2023-01-10T09:47:55.814Z,40.88
2023-01-10T09:50:27.835Z,41.08
2023-01-10T09:53:01.627Z,45.53
2023-01-10T09:55:37.014Z,45.50
2023-01-10T09:58:13.040Z,35.83
2023-01-10T10:01:10.942Z,44.10
2023-01-10T10:03:47.532Z,48.30
2023-01-10T10:06:14.546Z,49.63
2023-01-10T10:08:46.577Z,44.05
2023-01-10T10:11:25.238Z,50.20
2023-01-10T10:13:59.912Z,47.58
2023-01-10T10:16:54.768Z,43.10
2023-01-10T10:19:46.316Z,45.67
2023-01-10T10:23:01.098Z,49.55
2023-01-10T10:26:06.713Z,41.45
2023-01-10T10:28:57.666Z,42.45
2023-01-10T10:31:45.928Z,43.00
2023-01-10T10:34:38.990Z,43.83
2023-01-10T10:37:26.814Z,40.35
2023-01-10T10:40:05.049Z,39.30
2023-01-10T10:42:39.342Z,47.70
2023-01-10T10:45:10.576Z,55.47
2023-01-10T10:47:42.724Z,40.00
2023-01-10T10:50:27.387Z,51.58
2023-01-10T10:52:53.854Z,41.00
2023-01-10T10:55:29.755Z,45.60
2023-01-10T10:58:00.502Z,39.05
2023-01-10T11:00:29.461Z,40.60
2023-01-10T11:03:13.434Z,49.72
2023-01-10T11:05:41.844Z,46.78
2023-01-10T11:08:15.854Z,43.35
2023-01-10T11:10:52.469Z,38.97
2023-01-10T11:13:34.048Z,43.88
2023-01-10T11:16:05.822Z,35.50
2023-01-10T11:18:33.685Z,42.65
2023-01-10T11:21:11.588Z,45.35
2023-01-10T11:23:41.941Z,44.72
2023-01-10T11:26:34.386Z,42.80
2023-01-10T11:29:14.483Z,39.38
2023-01-10T11:31:41.915Z,51.72
2023-01-10T11:34:33.131Z,51.20
2023-01-10T11:37:03.340Z,35.72
2023-01-10T11:41:59.352Z,45.88
2023-01-10T11:44:28.835Z,39.50
2023-01-10T11:47:01.799Z,48.67
2023-01-10T11:49:38.874Z,37.45
2023-01-10T11:52:26.360Z,45.90
2023-01-10T11:55:00.432Z,50.97
2023-01-10T11:57:30.683Z,44.95
2023-01-10T12:02:44.823Z,41.20
2023-01-10T12:05:19.738Z,51.13
2023-01-10T12:07:56.403Z,45.97
2023-01-10T12:10:25.244Z,49.25
2023-01-10T12:12:58.143Z,50.67
2023-01-10T12:15:26.212Z,61.25
2023-01-10T12:17:53.583Z,50.00
2023-01-10T12:20:20.075Z,42.38
2023-01-10T12:22:49.963Z,63.42
2023-01-10T12:25:20.877Z,44.67
2023-01-10T12:27:50.455Z,46.70
2023-01-10T12:30:23.921Z,49.47
2023-01-10T12:32:53.439Z,36.45
2023-01-10T12:35:34.372Z,46.63
2023-01-10T12:38:44.279Z,42.28
2023-01-10T12:41:35.810Z,39.42
2023-01-10T12:44:12.062Z,43.72
2023-01-10T12:47:09.217Z,49.20
2023-01-10T12:49:46.300Z,34.40
2023-01-10T12:52:23.106Z,47.42
2023-01-10T12:54:49.707Z,49.72
2023-01-10T12:57:35.928Z,43.78
2023-01-10T13:00:06.812Z,35.40
2023-01-10T13:02:43.770Z,53.42
2023-01-10T13:05:30.032Z,52.63
2023-01-10T13:08:03.357Z,44.78
2023-01-10T13:10:31.253Z,40.92
2023-01-10T13:13:20.781Z,44.83
2023-01-10T13:16:02.977Z,44.60
2023-01-10T13:18:31.540Z,47.90
2023-01-10T13:21:18.568Z,49.55
2023-01-10T13:24:00.034Z,40.17
2023-01-10T13:26:26.971Z,47.58
2023-01-10T13:28:59.193Z,36.20
2023-01-10T13:31:31.705Z,46.55
2023-01-10T13:34:02.922Z,43.20
2023-01-10T13:36:37.723Z,40.83
2023-01-10T13:39:08.965Z,36.03
2023-01-10T13:42:16.149Z,34.72
2023-01-10T13:45:00.635Z,43.35
2023-01-10T13:47:39.319Z,37.13
2023-01-10T13:50:42.293Z,35.25
2023-01-10T13:53:12.709Z,45.28
2023-01-10T13:55:39.096Z,39.58
2023-01-10T13:58:14.345Z,44.00
2023-01-10T14:01:01.886Z,53.25
2023-01-10T14:03:51.794Z,51.40
2023-01-10T14:06:20.920Z,40.83
2023-01-10T14:08:57.745Z,39.97
2023-01-10T14:11:27.177Z,39.00
2023-01-10T14:13:57.589Z,39.75
2023-01-10T14:16:35.533Z,31.27
2023-01-10T14:19:05.022Z,45.80
2023-01-10T14:21:38.105Z,38.33
2023-01-10T14:24:04.838Z,44.55
2023-01-10T14:26:36.851Z,43.70
2023-01-10T14:29:15.904Z,38.97
2023-01-10T14:31:47.630Z,46.47
2023-01-10T14:34:26.710Z,33.70
2023-01-10T14:37:01.539Z,42.33
2023-01-10T14:39:29.396Z,44.20
2023-01-10T14:42:02.651Z,47.28
2023-01-10T14:44:34.979Z,47.25
2023-01-10T14:47:04.704Z,42.70
2023-01-10T14:49:36.152Z,28.65
2023-01-10T14:52:24.152Z,36.35
2023-01-10T14:55:22.556Z,34.42
2023-01-10T14:58:01.244Z,41.03
2023-01-10T15:00:33.787Z,30.17
2023-01-10T15:03:03.827Z,41.75
2023-01-10T15:05:35.114Z,37.22
2023-01-10T15:08:16.935Z,40.20
2023-01-10T15:10:47.173Z,39.90
2023-01-10T15:13:18.723Z,45.55
2023-01-10T15:15:47.748Z,47.70
2023-01-10T15:18:26.265Z,128.98
2023-01-10T15:20:53.630Z,139.70
2023-01-10T15:23:20.861Z,88.60
2023-01-10T15:25:57.267Z,43.38
2023-01-10T15:28:23.764Z,40.60
2023-01-10T15:30:50.811Z,40.13
2023-01-10T15:33:22.772Z,34.78
2023-01-10T15:35:49.330Z,42.00
2023-01-10T15:38:27.247Z,67.53
2023-01-10T15:41:02.443Z,46.58
2023-01-10T15:43:34.255Z,46.10
2023-01-10T15:46:03.236Z,40.30
2023-01-10T15:48:43.691Z,55.03
2023-01-10T15:51:26.030Z,48.47
2023-01-10T15:54:04.682Z,71.78
2023-01-10T15:56:33.246Z,44.05
2023-01-10T15:59:01.134Z,68.57
2023-01-10T16:01:29.131Z,49.22
2023-01-10T16:04:02.057Z,49.72
2023-01-10T16:06:36.897Z,58.08
2023-01-10T16:09:17.529Z,47.05
2023-01-10T16:12:10.828Z,31.63
2023-01-10T16:14:37.899Z,63.58
2023-01-10T16:17:05.926Z,61.22
2023-01-10T16:19:32.349Z,51.17
2023-01-10T16:22:00.082Z,49.20
2023-01-10T16:24:35.933Z,49.22
2023-01-10T16:27:05.931Z,38.67
2023-01-10T16:29:33.560Z,38.10
2023-01-10T16:32:00.172Z,36.35
2023-01-10T16:34:26.574Z,55.40
2023-01-10T16:36:53.299Z,43.05
2023-01-10T16:39:22.105Z,45.40
2023-01-10T16:42:07.747Z,40.80
2023-01-10T16:44:35.023Z,57.78
2023-01-10T16:47:04.343Z,50.83
2023-01-10T16:49:32.406Z,52.35
2023-01-10T16:51:59.508Z,49.33
2023-01-10T16:54:25.947Z,56.42
2023-01-10T16:56:52.386Z,45.13
2023-01-10T16:59:20.482Z,49.10
2023-01-10T17:01:52.055Z,53.08
2023-01-10T17:04:23.909Z,45.17
2023-01-10T17:06:50.828Z,51.67
2023-01-10T17:09:27.508Z,68.13
2023-01-10T17:12:01.667Z,56.88
2023-01-10T17:14:30.140Z,41.50
2023-01-10T17:16:56.599Z,55.90
2023-01-10T17:19:23.043Z,44.03
2023-01-10T17:21:50.890Z,52.75
2023-01-10T17:24:17.507Z,44.35
2023-01-10T17:26:44.042Z,56.33
2023-01-10T17:29:10.506Z,45.60
2023-01-10T17:31:37.143Z,53.65
2023-01-10T17:34:03.746Z,47.33
2023-01-10T17:36:32.443Z,47.67
2023-01-10T17:38:59.649Z,46.92
2023-01-10T17:41:26.062Z,53.30
2023-01-10T17:43:52.480Z,43.13
2023-01-10T17:46:18.936Z,44.40
2023-01-10T17:48:45.352Z,52.15
2023-01-10T17:51:13.178Z,36.78
2023-01-10T17:53:40.594Z,37.03
2023-01-10T17:56:07.898Z,46.75
2023-01-10T17:58:34.810Z,42.60
2023-01-10T18:01:01.334Z,42.30
2023-01-10T18:03:27.964Z,48.25
2023-01-10T18:05:56.395Z,42.90
2023-01-10T18:08:23.357Z,43.15
2023-01-10T18:10:50.498Z,42.55
2023-01-10T18:13:20.004Z,34.80
2023-01-10T18:15:49.863Z,48.00
2023-01-10T18:18:16.885Z,43.40
2023-01-10T18:20:44.785Z,40.42
2023-01-10T18:23:24.846Z,44.92
2023-01-10T18:25:53.281Z,41.17
2023-01-10T18:28:23.520Z,40.78
2023-01-10T18:30:56.058Z,36.72
2023-01-10T18:33:25.620Z,41.78
2023-01-10T18:35:52.199Z,43.33
2023-01-10T18:38:19.139Z,45.58
2023-01-10T18:40:47.208Z,42.03
2023-01-10T18:43:16.542Z,36.55
2023-01-10T18:45:44.878Z,39.03
2023-01-10T18:48:12.235Z,41.95
2023-01-10T18:50:38.721Z,44.88
2023-01-10T18:53:05.445Z,38.95
2023-01-10T18:55:32.194Z,35.55
2023-01-10T18:57:58.991Z,36.97
2023-01-10T19:00:25.608Z,38.47
2023-01-10T19:02:54.158Z,41.28
2023-01-10T19:05:21.346Z,35.80
2023-01-10T19:07:47.861Z,37.50
2023-01-10T19:10:14.325Z,28.45
2023-01-10T19:12:42.277Z,29.85
2023-01-10T19:15:09.730Z,33.13
2023-01-10T19:17:36.128Z,27.92
2023-01-10T19:20:03.124Z,35.00
2023-01-10T19:22:29.532Z,33.13
2023-01-10T19:24:56.084Z,27.48
2023-01-10T19:27:22.466Z,29.35
2023-01-10T19:29:49.838Z,36.55
2023-01-10T19:32:16.514Z,27.90
2023-01-10T19:34:45.461Z,34.78
2023-01-10T19:37:12.706Z,35.22
2023-01-10T19:39:39.138Z,29.17
2023-01-10T19:42:05.866Z,29.83
2023-01-10T19:44:32.324Z,26.52
2023-01-10T19:46:59.132Z,27.02
2023-01-10T19:49:25.625Z,32.00
2023-01-10T19:51:53.646Z,34.38
2023-01-10T19:54:20.268Z,26.23
2023-01-10T19:56:46.710Z,31.88
2023-01-10T19:59:17.621Z,32.88
2023-01-10T20:01:44.299Z,24.23
2023-01-10T20:04:10.838Z,26.30
2023-01-10T20:06:39.197Z,31.75
2023-01-10T20:09:07.219Z,26.85
2023-01-10T20:11:37.876Z,37.47
2023-01-10T20:14:11.903Z,38.08
2023-01-10T20:16:38.453Z,29.85
2023-01-10T20:19:08.896Z,37.63
2023-01-10T20:21:37.035Z,37.17
2023-01-10T20:24:07.987Z,35.78
2023-01-10T20:26:34.862Z,31.05
2023-01-10T20:29:02.747Z,33.70
2023-01-10T20:31:29.689Z,35.10
2023-01-10T20:33:56.138Z,29.98
2023-01-10T20:36:24.255Z,31.60
2023-01-10T20:38:51.048Z,25.55
2023-01-10T20:41:22.835Z,32.10
2023-01-10T20:43:49.861Z,35.08
2023-01-10T20:46:20.214Z,29.17
2023-01-10T20:48:48.046Z,35.65
2023-01-10T20:51:23.585Z,31.02
2023-01-10T20:53:51.048Z,31.30
2023-01-10T20:56:26.026Z,30.25
2023-01-10T20:58:53.480Z,28.40
2023-01-10T21:01:33.059Z,24.98
2023-01-10T21:04:00.816Z,32.83
2023-01-10T21:06:27.420Z,33.22
2023-01-10T21:08:53.940Z,34.50
2023-01-10T21:11:20.879Z,31.90
2023-01-10T21:13:47.454Z,41.00
2023-01-10T21:16:16.149Z,34.90
2023-01-10T21:18:44.363Z,33.50
2023-01-10T21:21:13.501Z,28.38
2023-01-10T21:23:40.682Z,31.52
2023-01-10T21:26:10.781Z,33.15
2023-01-10T21:28:42.226Z,29.15
2023-01-10T21:31:10.299Z,31.42
2023-01-10T21:33:37.253Z,25.63
2023-01-10T21:36:04.397Z,33.33
2023-01-10T21:38:32.316Z,33.63
2023-01-10T21:41:07.823Z,32.17
2023-01-10T21:43:34.297Z,25.08
2023-01-10T21:46:01.511Z,28.10
2023-01-10T21:48:28.884Z,21.50
2023-01-10T21:50:55.664Z,29.08
2023-01-10T21:53:22.778Z,30.40
2023-01-10T21:55:49.317Z,25.58
2023-01-10T21:58:15.788Z,27.55
2023-01-10T22:00:42.248Z,28.40
2023-01-10T22:03:08.875Z,30.45
2023-01-10T22:05:35.242Z,27.42
2023-01-10T22:08:01.673Z,26.10
2023-01-10T22:10:28.101Z,25.38
2023-01-10T22:12:54.518Z,25.95
2023-01-10T22:15:20.999Z,23.20
2023-01-10T22:17:48.234Z,31.33
2023-01-10T22:20:16.670Z,31.35
2023-01-10T22:22:43.073Z,29.70
2023-01-10T22:25:09.999Z,28.30
2023-01-10T22:27:36.408Z,31.52
2023-01-10T22:30:02.999Z,30.33
2023-01-10T22:32:29.384Z,30.50
2023-01-10T22:34:55.807Z,29.92
2023-01-10T22:37:22.211Z,26.17
2023-01-10T22:39:48.811Z,29.63
2023-01-10T22:42:15.294Z,34.28
2023-01-10T22:44:41.767Z,33.80
2023-01-10T22:47:09.976Z,36.65
2023-01-10T22:49:36.453Z,34.15
2023-01-10T22:52:02.949Z,24.73
2023-01-10T22:54:29.351Z,28.02
2023-01-10T22:56:55.782Z,34.05
2023-01-10T22:59:22.200Z,32.85
2023-01-10T23:01:48.643Z,28.08
2023-01-10T23:04:16.753Z,30.08
2023-01-10T23:06:43.280Z,26.80
2023-01-10T23:09:09.789Z,27.77
2023-01-10T23:11:36.210Z,30.80
2023-01-10T23:14:02.704Z,31.10
2023-01-10T23:16:32.634Z,30.02
2023-01-10T23:19:00.425Z,32.72
2023-01-10T23:21:29.206Z,33.88
2023-01-10T23:23:56.163Z,27.35
2023-01-10T23:26:22.840Z,28.02
2023-01-10T23:28:50.930Z,29.35
2023-01-10T23:31:23.182Z,27.20
2023-01-10T23:33:51.748Z,29.08
2023-01-10T23:36:18.914Z,28.65
2023-01-10T23:38:45.711Z,28.15
2023-01-10T23:41:12.626Z,27.33
2023-01-10T23:43:39.148Z,28.63
2023-01-10T23:46:06.891Z,29.55
2023-01-10T23:48:33.763Z,30.20
2023-01-10T23:51:00.315Z,30.20
2023-01-10T23:53:26.780Z,28.88
2023-01-10T23:55:53.313Z,29.75
2023-01-10T23:58:20.027Z,30.73
